createdAt,value
2019-04-29T00:02:31.069Z,7.43
2019-04-29T00:05:18.517Z,8.97
2019-04-29T00:08:06.170Z,6.87
2019-04-29T00:10:53.898Z,7.80
2019-04-29T00:13:41.649Z,9.97
2019-04-29T00:16:40.059Z,8.90
2019-04-29T00:19:29.227Z,9.70
2019-04-29T00:22:16.590Z,7.83
2019-04-29T00:25:05.177Z,7.93
2019-04-29T00:27:52.565Z,7.93
2019-04-29T00:30:40.290Z,6.67
2019-04-29T00:33:27.942Z,10.03
2019-04-29T00:36:16.589Z,8.10
2019-04-29T00:39:23.445Z,8.80
2019-04-29T00:42:18.831Z,5.87
2019-04-29T00:45:07.536Z,8.53
2019-04-29T00:47:55.305Z,6.83
2019-04-29T00:50:42.810Z,5.20
2019-04-29T00:53:30.309Z,5.27
2019-04-29T00:56:17.709Z,11.50
2019-04-29T00:59:05.206Z,5.60
2019-04-29T01:01:53.083Z,7.60
2019-04-29T01:04:40.463Z,7.93
2019-04-29T01:07:37.100Z,7.20
2019-04-29T01:10:24.514Z,6.27
2019-04-29T01:13:12.221Z,8.13
2019-04-29T01:15:59.864Z,8.43
2019-04-29T01:18:47.300Z,7.13
2019-04-29T01:21:34.934Z,8.43
2019-04-29T01:24:22.601Z,5.53
2019-04-29T01:27:11.797Z,6.33
2019-04-29T01:29:59.333Z,6.00
2019-04-29T01:32:46.766Z,6.97
2019-04-29T01:35:34.142Z,5.50
2019-04-29T01:38:21.897Z,6.57
2019-04-29T01:41:13.633Z,6.37
2019-04-29T01:44:06.274Z,7.57
2019-04-29T01:46:53.621Z,6.23
2019-04-29T01:49:41.217Z,7.93
2019-04-29T01:52:28.858Z,5.20
2019-04-29T01:55:16.478Z,7.43
2019-04-29T01:58:03.890Z,7.67
2019-04-29T02:00:51.490Z,5.70
2019-04-29T02:03:38.865Z,8.73
2019-04-29T02:06:26.661Z,5.33
2019-04-29T02:09:15.950Z,7.17
2019-04-29T02:12:03.517Z,6.13
2019-04-29T02:14:51.417Z,7.93
2019-04-29T02:17:39.244Z,6.73
2019-04-29T02:20:26.952Z,6.77
2019-04-29T02:23:19.146Z,6.57
2019-04-29T02:26:07.523Z,5.83
2019-04-29T02:28:54.991Z,7.93
2019-04-29T02:31:44.386Z,6.93
2019-04-29T02:34:31.753Z,6.87
2019-04-29T02:37:21.106Z,7.13
2019-04-29T02:40:10.212Z,6.00
2019-04-29T02:42:59.659Z,7.90
2019-04-29T02:45:47.949Z,9.20
2019-04-29T02:48:35.375Z,7.53
2019-04-29T02:51:40.972Z,5.97
2019-04-29T02:54:29.628Z,8.60
2019-04-29T02:57:31.025Z,7.50
2019-04-29T03:00:26.143Z,9.10
2019-04-29T03:03:24.539Z,9.50
2019-04-29T03:06:12.446Z,8.70
2019-04-29T03:09:00.043Z,6.63
2019-04-29T03:11:47.467Z,9.07
2019-04-29T03:14:35.309Z,6.87
2019-04-29T03:17:22.793Z,9.77
2019-04-29T03:20:17.503Z,7.63
2019-04-29T03:23:10.366Z,8.33
2019-04-29T03:25:58.144Z,10.27
2019-04-29T03:28:46.015Z,7.43
2019-04-29T03:31:39.097Z,6.50
2019-04-29T03:34:22.950Z,12.67
2019-04-29T03:37:10.378Z,6.40
2019-04-29T03:39:58.110Z,7.93
2019-04-29T03:42:45.761Z,8.33
2019-04-29T03:45:33.385Z,8.37
2019-04-29T03:48:21.002Z,10.20
2019-04-29T03:51:08.483Z,6.73
2019-04-29T03:53:56.150Z,7.83
2019-04-29T03:56:44.592Z,7.53
2019-04-29T03:59:31.997Z,7.80
2019-04-29T04:02:27.481Z,7.17
2019-04-29T04:05:32.750Z,8.10
2019-04-29T04:08:33.795Z,7.00
2019-04-29T04:11:21.198Z,6.30
2019-04-29T04:14:08.990Z,20.53
2019-04-29T04:17:04.055Z,10.40
2019-04-29T04:19:52.261Z,13.07
2019-04-29T04:22:46.644Z,10.67
2019-04-29T04:25:34.285Z,9.33
2019-04-29T04:28:21.846Z,11.47
2019-04-29T04:31:09.523Z,11.00
2019-04-29T04:33:57.070Z,9.70
2019-04-29T04:36:44.771Z,10.57
2019-04-29T04:39:33.802Z,11.43
2019-04-29T04:42:21.521Z,7.33
2019-04-29T04:45:09.266Z,8.73
2019-04-29T04:47:56.962Z,8.03
2019-04-29T04:50:44.589Z,8.83
2019-04-29T04:53:32.001Z,10.87
2019-04-29T04:56:19.627Z,7.97
2019-04-29T04:59:07.321Z,9.00
2019-04-29T05:01:54.983Z,8.80
2019-04-29T05:04:42.329Z,8.97
2019-04-29T05:07:30.002Z,10.57
2019-04-29T05:10:17.678Z,11.37
2019-04-29T05:13:05.205Z,10.90
2019-04-29T05:15:52.684Z,8.57
2019-04-29T05:18:40.386Z,9.80
2019-04-29T05:21:27.966Z,8.30
2019-04-29T05:24:15.639Z,7.50
2019-04-29T05:27:03.310Z,9.57
2019-04-29T05:29:50.876Z,8.13
2019-04-29T05:32:38.522Z,7.60
2019-04-29T05:35:44.079Z,6.60
2019-04-29T05:38:39.019Z,8.63
2019-04-29T05:41:30.102Z,7.13
2019-04-29T05:44:19.125Z,8.63
2019-04-29T05:47:08.501Z,5.30
2019-04-29T05:50:16.709Z,6.43
2019-04-29T05:53:11.425Z,6.80
2019-04-29T05:55:57.300Z,4.93
2019-04-29T05:58:45.061Z,6.50
2019-04-29T06:01:32.433Z,7.70
2019-04-29T06:04:19.769Z,7.50
2019-04-29T06:07:07.452Z,6.20
2019-04-29T06:09:55.203Z,4.60
2019-04-29T06:12:44.485Z,5.20
2019-04-29T06:15:31.589Z,6.60
2019-04-29T06:18:22.142Z,4.83
2019-04-29T06:21:09.811Z,4.60
2019-04-29T06:23:59.493Z,4.93
2019-04-29T06:26:46.436Z,5.23
2019-04-29T06:29:34.121Z,5.03
2019-04-29T06:32:24.952Z,4.50
2019-04-29T06:35:14.192Z,6.87
2019-04-29T06:38:00.383Z,5.67
2019-04-29T06:40:47.849Z,7.47
2019-04-29T06:43:35.518Z,7.23
2019-04-29T06:46:23.453Z,4.53
2019-04-29T06:49:11.018Z,4.70
2019-04-29T06:51:58.713Z,4.53
2019-04-29T06:54:46.166Z,5.90
2019-04-29T06:57:33.768Z,5.07
2019-04-29T07:00:22.330Z,3.13
2019-04-29T07:03:10.505Z,3.27
2019-04-29T07:05:58.087Z,4.97
2019-04-29T07:08:45.415Z,5.63
2019-04-29T07:11:36.538Z,6.87
2019-04-29T07:14:22.955Z,5.37
2019-04-29T07:17:10.733Z,3.37
2019-04-29T07:20:01.962Z,3.87
2019-04-29T07:22:47.992Z,3.43
2019-04-29T07:25:35.433Z,3.97
2019-04-29T07:28:23.124Z,3.90
2019-04-29T07:31:10.938Z,6.13
2019-04-29T07:33:59.146Z,4.07
2019-04-29T07:36:46.569Z,6.00
2019-04-29T07:39:34.070Z,3.50
2019-04-29T07:42:25.073Z,4.57
2019-04-29T07:45:23.783Z,3.67
2019-04-29T07:48:11.413Z,4.17
2019-04-29T07:50:59.624Z,4.33
2019-04-29T07:53:48.587Z,4.43
2019-04-29T07:56:37.939Z,2.97
2019-04-29T07:59:25.584Z,5.67
2019-04-29T08:02:13.073Z,4.67
2019-04-29T08:05:00.853Z,5.50
2019-04-29T08:07:48.792Z,4.37
2019-04-29T08:10:36.456Z,3.53
2019-04-29T08:13:26.335Z,4.23
2019-04-29T08:16:17.077Z,3.77
2019-04-29T08:19:04.820Z,4.17
2019-04-29T08:21:52.729Z,4.73
2019-04-29T08:24:40.028Z,3.90
2019-04-29T08:27:39.233Z,4.27
2019-04-29T08:30:18.349Z,6.23
2019-04-29T08:33:07.507Z,4.20
2019-04-29T08:35:55.282Z,4.00
2019-04-29T08:38:42.730Z,6.97
2019-04-29T08:41:30.306Z,4.80
2019-04-29T08:44:34.346Z,5.57
2019-04-29T08:47:30.543Z,3.50
2019-04-29T08:50:15.853Z,3.90
2019-04-29T08:53:03.918Z,6.20
2019-04-29T08:55:51.657Z,5.17
2019-04-29T08:58:39.590Z,6.00
2019-04-29T09:01:29.359Z,5.30
2019-04-29T09:04:16.735Z,4.23
2019-04-29T09:07:12.325Z,6.37
2019-04-29T09:09:56.064Z,4.83
2019-04-29T09:12:43.386Z,5.73
2019-04-29T09:15:31.021Z,3.20
2019-04-29T09:18:18.625Z,4.73
2019-04-29T09:21:06.061Z,5.00
2019-04-29T09:23:53.725Z,5.40
2019-04-29T09:26:43.057Z,4.70
2019-04-29T09:29:31.904Z,4.17
2019-04-29T09:32:19.682Z,5.40
2019-04-29T09:35:07.766Z,4.93
2019-04-29T09:37:58.405Z,6.83
2019-04-29T09:40:48.804Z,7.33
2019-04-29T09:43:46.565Z,5.67
2019-04-29T09:46:35.925Z,5.13
2019-04-29T09:49:23.675Z,5.80
2019-04-29T09:52:11.264Z,5.67
2019-04-29T09:54:59.542Z,3.73
2019-04-29T09:57:48.854Z,6.00
2019-04-29T10:00:40.684Z,4.57
2019-04-29T10:03:44.979Z,5.10
2019-04-29T10:06:39.962Z,4.03
2019-04-29T10:09:28.079Z,5.20
2019-04-29T10:12:15.802Z,4.80
2019-04-29T10:15:05.289Z,5.40
2019-04-29T10:17:56.091Z,4.80
2019-04-29T10:20:45.659Z,5.50
2019-04-29T10:23:33.170Z,5.60
2019-04-29T10:26:20.921Z,7.67
2019-04-29T10:29:13.843Z,4.87
2019-04-29T10:32:02.433Z,4.20
2019-04-29T10:34:48.849Z,5.57
2019-04-29T10:37:36.254Z,4.37
2019-04-29T10:40:35.718Z,4.07
2019-04-29T10:43:41.634Z,6.17
2019-04-29T10:46:31.131Z,5.93
2019-04-29T10:49:20.225Z,4.47
2019-04-29T10:52:07.917Z,4.53
2019-04-29T10:54:56.553Z,5.50
2019-04-29T10:57:44.938Z,5.27
2019-04-29T11:00:59.454Z,7.97
2019-04-29T11:03:47.022Z,4.87
2019-04-29T11:06:35.980Z,6.50
2019-04-29T11:09:42.286Z,6.80
2019-04-29T11:12:29.851Z,8.17
2019-04-29T11:15:19.050Z,4.83
2019-04-29T11:18:07.182Z,5.73
2019-04-29T11:20:55.513Z,7.47
2019-04-29T11:23:50.564Z,7.43
2019-04-29T11:26:44.927Z,5.67
2019-04-29T11:29:35.699Z,4.83
2019-04-29T11:32:24.838Z,7.90
2019-04-29T11:35:24.536Z,6.47
2019-04-29T11:38:13.809Z,8.30
2019-04-29T11:41:01.198Z,6.40
2019-04-29T11:43:50.970Z,7.00
2019-04-29T11:46:38.053Z,4.63
2019-04-29T11:49:27.445Z,5.43
2019-04-29T11:52:15.392Z,8.67
2019-04-29T11:55:03.137Z,7.30
2019-04-29T11:57:52.318Z,3.93
2019-04-29T12:00:53.935Z,5.53
2019-04-29T12:03:43.108Z,7.03
2019-04-29T12:06:30.449Z,6.33
2019-04-29T12:09:18.129Z,7.13
2019-04-29T12:12:07.780Z,4.23
2019-04-29T12:14:56.320Z,4.47
2019-04-29T12:17:45.725Z,7.10
2019-04-29T12:20:37.530Z,8.03
2019-04-29T12:23:25.089Z,5.17
2019-04-29T12:26:12.917Z,6.83
2019-04-29T12:29:00.390Z,4.70
2019-04-29T12:32:04.741Z,5.97
2019-04-29T12:34:56.764Z,5.57
2019-04-29T12:37:51.962Z,8.03
2019-04-29T12:40:50.181Z,7.87
2019-04-29T12:43:53.593Z,9.73
2019-04-29T12:46:43.910Z,5.90
2019-04-29T12:49:31.573Z,3.80
2019-04-29T12:52:19.217Z,5.80
2019-04-29T12:55:19.718Z,5.13
2019-04-29T12:57:57.606Z,8.10
2019-04-29T13:00:48.264Z,4.87
2019-04-29T13:03:51.346Z,5.30
2019-04-29T13:06:49.606Z,5.60
2019-04-29T13:09:38.750Z,7.10
2019-04-29T13:12:26.765Z,5.20
2019-04-29T13:15:33.311Z,9.13
2019-04-29T13:18:27.594Z,6.67
2019-04-29T13:21:15.305Z,7.17
2019-04-29T13:24:13.237Z,9.00
2019-04-29T13:26:52.869Z,5.53
2019-04-29T13:29:40.329Z,11.40
2019-04-29T13:32:29.759Z,10.53
2019-04-29T13:35:17.718Z,7.47
2019-04-29T13:38:05.492Z,9.50
2019-04-29T13:41:11.415Z,5.90
2019-04-29T13:43:42.405Z,6.30
2019-04-29T13:46:40.768Z,6.60
2019-04-29T13:49:29.693Z,7.47
2019-04-29T13:52:17.461Z,7.63
2019-04-29T13:55:17.329Z,6.37
2019-04-29T13:57:55.193Z,4.77
2019-04-29T14:01:01.622Z,8.00
2019-04-29T14:04:06.813Z,5.23
2019-04-29T14:06:57.005Z,6.80
2019-04-29T14:09:43.294Z,7.07
2019-04-29T14:15:21.070Z,8.37
2019-04-29T14:18:11.590Z,8.70
2019-04-29T14:20:57.912Z,12.43
2019-04-29T14:23:45.565Z,8.07
2019-04-29T14:26:37.104Z,10.17
2019-04-29T14:29:28.165Z,8.37
2019-04-29T14:32:18.318Z,7.97
2019-04-29T14:35:11.769Z,8.03
2019-04-29T14:38:04.620Z,8.97
2019-04-29T14:40:49.492Z,8.23
2019-04-29T14:43:54.999Z,6.53
2019-04-29T14:46:50.818Z,9.27
2019-04-29T14:49:48.938Z,7.00
2019-04-29T14:52:36.464Z,5.80
2019-04-29T14:55:25.524Z,5.17
2019-04-29T14:58:13.766Z,5.83
2019-04-29T15:01:06.312Z,5.27
2019-04-29T15:03:55.701Z,7.63
2019-04-29T15:06:43.341Z,3.67
2019-04-29T15:09:31.196Z,5.70
2019-04-29T15:12:21.759Z,5.07
2019-04-29T15:15:29.759Z,4.50
2019-04-29T15:18:46.162Z,5.30
2019-04-29T15:21:32.854Z,3.77
2019-04-29T15:24:19.973Z,4.83
2019-04-29T15:27:08.034Z,4.27
2019-04-29T15:29:55.678Z,4.77
2019-04-29T15:32:43.377Z,5.00
2019-04-29T15:35:31.118Z,10.00
2019-04-29T15:38:18.860Z,8.93
2019-04-29T15:41:06.457Z,6.50
2019-04-29T15:44:06.322Z,7.00
2019-04-29T15:46:47.099Z,6.53
2019-04-29T15:49:34.561Z,6.50
2019-04-29T15:52:25.807Z,6.03
2019-04-29T15:55:12.361Z,7.77
2019-04-29T15:58:00.118Z,6.90
2019-04-29T16:00:48.017Z,7.00
2019-04-29T16:03:37.608Z,7.83
2019-04-29T16:06:26.185Z,7.63
2019-04-29T16:09:15.476Z,7.60
2019-04-29T16:45:52.966Z,6.47
2019-04-29T16:48:41.122Z,7.43
2019-04-29T16:51:29.122Z,10.47
2019-04-29T16:54:20.653Z,4.47
2019-04-29T17:12:53.449Z,4.03
2019-04-29T17:15:44.610Z,3.77
2019-04-29T17:18:30.892Z,5.73
2019-04-29T17:21:18.584Z,4.73
2019-04-29T17:24:06.629Z,3.43
2019-04-29T17:27:05.082Z,4.97
2019-04-29T17:30:11.149Z,4.07
2019-04-29T17:33:01.841Z,4.43
2019-04-29T17:35:51.846Z,5.03
2019-04-29T17:38:39.689Z,5.47
2019-04-29T17:41:27.352Z,3.83
2019-04-29T17:44:28.622Z,4.50
2019-04-29T17:47:20.566Z,6.00
2019-04-29T17:50:13.741Z,3.33
2019-04-29T17:53:01.865Z,4.43
2019-04-29T17:55:51.499Z,6.00
2019-04-29T17:58:44.004Z,6.50
2019-04-29T18:01:42.836Z,6.63
2019-04-29T18:04:29.552Z,5.10
2019-04-29T18:07:21.841Z,5.97
2019-04-29T18:10:24.345Z,6.07
2019-04-29T18:13:07.077Z,6.63
2019-04-29T18:16:01.740Z,6.47
2019-04-29T18:18:53.121Z,5.50
2019-04-29T18:21:56.026Z,6.27
2019-04-29T18:24:45.766Z,9.00
2019-04-29T18:27:36.861Z,7.50
2019-04-29T18:30:35.383Z,10.67
2019-04-29T18:33:18.966Z,10.30
2019-04-29T18:36:07.167Z,6.90
2019-04-29T18:38:55.641Z,7.33
2019-04-29T18:41:44.838Z,8.83
2019-04-29T18:44:32.625Z,7.10
2019-04-29T18:47:22.931Z,8.27
2019-04-29T18:50:10.139Z,11.73
2019-04-29T18:52:57.925Z,7.70
2019-04-29T18:55:45.774Z,9.03
2019-04-29T18:58:35.491Z,7.00
2019-04-29T19:01:24.172Z,7.30
2019-04-29T19:04:31.649Z,9.07
2019-04-29T19:07:20.398Z,8.67
2019-04-29T19:10:14.330Z,7.37
2019-04-29T19:13:00.631Z,8.47
2019-04-29T19:15:48.746Z,10.70
2019-04-29T19:18:36.932Z,8.37
2019-04-29T19:21:30.483Z,10.07
2019-04-29T19:24:16.203Z,9.33
2019-04-29T19:27:09.126Z,8.73
2019-04-29T19:29:55.015Z,9.77
2019-04-29T19:32:45.037Z,8.23
2019-04-29T19:35:37.021Z,9.33
2019-04-29T19:38:22.381Z,10.00
2019-04-29T19:41:11.564Z,11.07
2019-04-29T19:43:59.417Z,10.17
2019-04-29T19:46:47.338Z,8.93
2019-04-29T19:49:35.964Z,11.07
2019-04-29T19:52:30.314Z,8.50
2019-04-29T19:55:13.410Z,9.13
2019-04-29T19:58:01.766Z,7.70
2019-04-29T20:00:50.320Z,7.77
2019-04-29T20:03:41.655Z,11.90
2019-04-29T20:06:30.956Z,10.37
2019-04-29T20:09:22.693Z,9.97
2019-04-29T20:12:13.115Z,7.60
2019-04-29T20:15:01.826Z,9.87
2019-04-29T20:18:06.787Z,12.10
2019-04-29T20:21:08.150Z,11.63
2019-04-29T20:23:46.783Z,9.40
2019-04-29T20:26:35.971Z,11.30
2019-04-29T20:29:27.275Z,10.77
2019-04-29T20:32:16.601Z,14.17
2019-04-29T20:35:08.565Z,20.23
2019-04-29T20:38:00.299Z,23.17
2019-04-29T20:40:47.057Z,24.07
2019-04-29T20:43:35.876Z,28.50
2019-04-29T20:46:27.430Z,20.07
2019-04-29T20:49:13.637Z,18.00
2019-04-29T20:52:05.289Z,17.43
2019-04-29T20:54:57.922Z,19.27
2019-04-29T20:57:42.324Z,16.27
2019-04-29T21:00:32.273Z,18.87
2019-04-29T21:03:27.857Z,15.63
2019-04-29T21:06:09.516Z,15.87
2019-04-29T21:08:57.589Z,16.40
2019-04-29T21:12:04.326Z,19.93
2019-04-29T21:15:14.826Z,17.80
2019-04-29T21:17:58.902Z,17.30
2019-04-29T21:20:46.802Z,18.83
2019-04-29T21:23:36.607Z,16.83
2019-04-29T21:26:26.180Z,19.17
2019-04-29T21:29:15.878Z,17.93
2019-04-29T21:32:05.916Z,17.73
2019-04-29T21:34:55.675Z,19.00
2019-04-29T21:37:48.056Z,17.43
2019-04-29T21:40:36.861Z,19.00
2019-04-29T21:43:32.570Z,21.93
2019-04-29T21:46:32.827Z,19.40
2019-04-29T21:49:20.725Z,18.73
2019-04-29T21:52:08.424Z,19.07
2019-04-29T21:54:56.981Z,21.00
2019-04-29T21:57:44.743Z,17.87
2019-04-29T22:00:32.882Z,17.70
2019-04-29T22:03:24.599Z,17.97
2019-04-29T22:06:10.165Z,19.83
2019-04-29T22:09:01.423Z,21.00
2019-04-29T22:11:47.297Z,20.67
2019-04-29T22:14:35.028Z,19.63
2019-04-29T22:17:26.372Z,19.43
2019-04-29T22:20:12.790Z,19.10
2019-04-29T22:23:00.369Z,20.13
2019-04-29T22:25:48.446Z,19.87
2019-04-29T22:28:36.160Z,21.40
2019-04-29T22:31:26.875Z,20.80
2019-04-29T22:34:18.092Z,22.03
2019-04-29T22:37:05.504Z,22.00
2019-04-29T22:39:53.357Z,24.97
2019-04-29T22:42:48.705Z,21.43
2019-04-29T22:45:35.909Z,23.17
2019-04-29T22:48:25.037Z,23.67
2019-04-29T22:51:15.224Z,22.40
2019-04-29T22:54:02.789Z,25.93
2019-04-29T22:56:53.738Z,25.80
2019-04-29T22:59:40.742Z,25.17
2019-04-29T23:02:28.611Z,27.97
2019-04-29T23:05:16.576Z,25.70
2019-04-29T23:08:05.100Z,28.93
2019-04-29T23:10:53.173Z,30.37
2019-04-29T23:13:41.131Z,27.57
2019-04-29T23:16:31.506Z,31.90
2019-04-29T23:19:19.021Z,29.87
2019-04-29T23:22:22.129Z,28.53
2019-04-29T23:25:26.618Z,31.80
2019-04-29T23:28:13.589Z,29.17
2019-04-29T23:31:01.501Z,29.77
2019-04-29T23:33:53.173Z,31.67
2019-04-29T23:36:38.725Z,31.80
2019-04-29T23:39:26.684Z,32.77
2019-04-29T23:42:16.268Z,32.17
2019-04-29T23:45:05.617Z,34.47
2019-04-29T23:47:55.166Z,35.63
2019-04-29T23:50:43.016Z,34.60
2019-04-29T23:53:30.842Z,38.10
2019-04-29T23:56:20.496Z,37.60
2019-04-29T23:59:14.866Z,35.13
